sensor_id;sensor_type;location;lat;lon;timestamp;P1;durP1;ratioP1;P2;durP2;ratioP2
67665;SDS011;54448;51.472;-2.574;2023-05-07T00:00:36;30.83;;;12.02;;
67665;SDS011;54448;51.472;-2.574;2023-05-07T00:03:02;38.08;;;13.75;;
67665;SDS011;54448;51.472;-2.574;2023-05-07T00:05:28;43.97;;;14.60;;
67665;SDS011;54448;51.472;-2.574;2023-05-07T00:07:53;43.40;;;16.80;;
67665;SDS011;54448;51.472;-2.574;2023-05-07T00:10:18;53.88;;;20.63;;
67665;SDS011;54448;51.472;-2.574;2023-05-07T00:12:44;45.38;;;15.40;;
67665;SDS011;54448;51.472;-2.574;2023-05-07T00:15:10;29.95;;;11.77;;
67665;SDS011;54448;51.472;-2.574;2023-05-07T00:17:35;30.15;;;11.80;;
67665;SDS011;54448;51.472;-2.574;2023-05-07T00:20:01;35.38;;;13.45;;
67665;SDS011;54448;51.472;-2.574;2023-05-07T00:22:28;38.53;;;12.52;;
67665;SDS011;54448;51.472;-2.574;2023-05-07T00:24:55;31.55;;;13.05;;
67665;SDS011;54448;51.472;-2.574;2023-05-07T00:27:21;35.20;;;13.30;;
67665;SDS011;54448;51.472;-2.574;2023-05-07T00:29:47;31.55;;;13.50;;
67665;SDS011;54448;51.472;-2.574;2023-05-07T00:32:12;36.13;;;12.63;;
67665;SDS011;54448;51.472;-2.574;2023-05-07T00:34:37;38.22;;;15.20;;
67665;SDS011;54448;51.472;-2.574;2023-05-07T00:37:04;36.63;;;13.85;;
67665;SDS011;54448;51.472;-2.574;2023-05-07T00:39:30;39.80;;;12.68;;
67665;SDS011;54448;51.472;-2.574;2023-05-07T00:41:55;34.75;;;12.77;;
67665;SDS011;54448;51.472;-2.574;2023-05-07T00:44:20;47.65;;;15.45;;
67665;SDS011;54448;51.472;-2.574;2023-05-07T00:46:46;43.20;;;14.48;;
67665;SDS011;54448;51.472;-2.574;2023-05-07T00:49:14;35.13;;;13.10;;
67665;SDS011;54448;51.472;-2.574;2023-05-07T00:51:40;38.15;;;12.70;;
67665;SDS011;54448;51.472;-2.574;2023-05-07T00:54:05;39.78;;;13.88;;
67665;SDS011;54448;51.472;-2.574;2023-05-07T00:56:31;39.65;;;14.02;;
67665;SDS011;54448;51.472;-2.574;2023-05-07T00:58:56;43.17;;;13.82;;
67665;SDS011;54448;51.472;-2.574;2023-05-07T01:01:22;40.38;;;14.57;;
67665;SDS011;54448;51.472;-2.574;2023-05-07T01:03:47;45.35;;;14.80;;
67665;SDS011;54448;51.472;-2.574;2023-05-07T01:06:13;40.70;;;13.40;;
67665;SDS011;54448;51.472;-2.574;2023-05-07T01:08:41;40.75;;;14.50;;
67665;SDS011;54448;51.472;-2.574;2023-05-07T01:11:07;40.53;;;14.30;;
67665;SDS011;54448;51.472;-2.574;2023-05-07T01:13:33;40.35;;;14.18;;
67665;SDS011;54448;51.472;-2.574;2023-05-07T01:15:59;42.55;;;13.40;;
67665;SDS011;54448;51.472;-2.574;2023-05-07T01:18:25;37.75;;;14.00;;
67665;SDS011;54448;51.472;-2.574;2023-05-07T01:20:51;39.20;;;13.98;;
67665;SDS011;54448;51.472;-2.574;2023-05-07T01:23:17;38.47;;;14.07;;
67665;SDS011;54448;51.472;-2.574;2023-05-07T01:25:43;32.17;;;13.45;;
67665;SDS011;54448;51.472;-2.574;2023-05-07T01:28:08;42.60;;;13.70;;
67665;SDS011;54448;51.472;-2.574;2023-05-07T01:30:33;36.70;;;14.25;;
67665;SDS011;54448;51.472;-2.574;2023-05-07T01:33:01;35.45;;;14.13;;
67665;SDS011;54448;51.472;-2.574;2023-05-07T01:35:34;37.38;;;15.07;;
67665;SDS011;54448;51.472;-2.574;2023-05-07T01:38:03;44.58;;;16.17;;
67665;SDS011;54448;51.472;-2.574;2023-05-07T01:40:29;51.67;;;17.15;;
67665;SDS011;54448;51.472;-2.574;2023-05-07T01:42:55;45.92;;;16.48;;
67665;SDS011;54448;51.472;-2.574;2023-05-07T01:45:20;44.85;;;16.00;;
67665;SDS011;54448;51.472;-2.574;2023-05-07T01:47:46;46.17;;;16.70;;
67665;SDS011;54448;51.472;-2.574;2023-05-07T01:50:11;46.90;;;15.32;;
67665;SDS011;54448;51.472;-2.574;2023-05-07T01:52:37;50.90;;;17.20;;
67665;SDS011;54448;51.472;-2.574;2023-05-07T01:55:03;55.72;;;17.65;;
67665;SDS011;54448;51.472;-2.574;2023-05-07T01:57:30;48.80;;;17.48;;
67665;SDS011;54448;51.472;-2.574;2023-05-07T01:59:55;49.33;;;18.38;;
67665;SDS011;54448;51.472;-2.574;2023-05-07T02:02:20;52.58;;;17.58;;
67665;SDS011;54448;51.472;-2.574;2023-05-07T02:04:46;50.08;;;18.48;;
67665;SDS011;54448;51.472;-2.574;2023-05-07T02:07:11;46.05;;;17.40;;
67665;SDS011;54448;51.472;-2.574;2023-05-07T02:09:37;42.45;;;16.02;;
67665;SDS011;54448;51.472;-2.574;2023-05-07T02:12:03;47.88;;;15.73;;
67665;SDS011;54448;51.472;-2.574;2023-05-07T02:14:28;46.25;;;16.77;;
67665;SDS011;54448;51.472;-2.574;2023-05-07T02:16:54;49.53;;;16.90;;
67665;SDS011;54448;51.472;-2.574;2023-05-07T02:19:19;46.38;;;17.77;;
67665;SDS011;54448;51.472;-2.574;2023-05-07T02:21:46;38.25;;;16.42;;
67665;SDS011;54448;51.472;-2.574;2023-05-07T02:24:11;49.83;;;17.73;;
67665;SDS011;54448;51.472;-2.574;2023-05-07T02:26:37;38.60;;;16.25;;
67665;SDS011;54448;51.472;-2.574;2023-05-07T02:29:02;41.35;;;15.75;;
67665;SDS011;54448;51.472;-2.574;2023-05-07T02:31:27;44.17;;;15.98;;
67665;SDS011;54448;51.472;-2.574;2023-05-07T02:33:53;40.17;;;16.42;;
67665;SDS011;54448;51.472;-2.574;2023-05-07T02:36:18;34.08;;;15.25;;
67665;SDS011;54448;51.472;-2.574;2023-05-07T02:38:43;43.78;;;16.15;;
67665;SDS011;54448;51.472;-2.574;2023-05-07T02:41:10;41.03;;;16.67;;
67665;SDS011;54448;51.472;-2.574;2023-05-07T02:43:36;41.03;;;16.85;;
67665;SDS011;54448;51.472;-2.574;2023-05-07T02:48:30;42.67;;;16.58;;
67665;SDS011;54448;51.472;-2.574;2023-05-07T02:50:55;44.95;;;16.88;;
67665;SDS011;54448;51.472;-2.574;2023-05-07T02:53:21;38.67;;;16.20;;
67665;SDS011;54448;51.472;-2.574;2023-05-07T02:55:46;41.65;;;16.90;;
67665;SDS011;54448;51.472;-2.574;2023-05-07T02:58:12;38.78;;;16.83;;
67665;SDS011;54448;51.472;-2.574;2023-05-07T03:00:37;44.10;;;16.15;;
67665;SDS011;54448;51.472;-2.574;2023-05-07T03:03:02;41.10;;;16.25;;
67665;SDS011;54448;51.472;-2.574;2023-05-07T03:05:28;42.85;;;16.42;;
67665;SDS011;54448;51.472;-2.574;2023-05-07T03:07:53;51.65;;;16.50;;
67665;SDS011;54448;51.472;-2.574;2023-05-07T03:10:18;54.80;;;18.15;;
67665;SDS011;54448;51.472;-2.574;2023-05-07T03:12:44;45.95;;;17.38;;
67665;SDS011;54448;51.472;-2.574;2023-05-07T03:15:09;50.33;;;19.63;;
67665;SDS011;54448;51.472;-2.574;2023-05-07T03:17:36;58.78;;;20.20;;
67665;SDS011;54448;51.472;-2.574;2023-05-07T03:20:01;57.83;;;20.50;;
67665;SDS011;54448;51.472;-2.574;2023-05-07T03:22:27;59.53;;;20.92;;
67665;SDS011;54448;51.472;-2.574;2023-05-07T03:24:52;50.92;;;20.10;;
67665;SDS011;54448;51.472;-2.574;2023-05-07T03:27:18;48.97;;;18.75;;
67665;SDS011;54448;51.472;-2.574;2023-05-07T03:29:43;50.38;;;18.45;;
67665;SDS011;54448;51.472;-2.574;2023-05-07T03:32:08;53.08;;;20.60;;
67665;SDS011;54448;51.472;-2.574;2023-05-07T03:34:34;49.15;;;18.77;;
67665;SDS011;54448;51.472;-2.574;2023-05-07T03:36:59;50.50;;;19.08;;
67665;SDS011;54448;51.472;-2.574;2023-05-07T03:39:25;50.63;;;17.70;;
67665;SDS011;54448;51.472;-2.574;2023-05-07T03:41:50;45.80;;;18.00;;
67665;SDS011;54448;51.472;-2.574;2023-05-07T03:44:15;46.00;;;17.30;;
67665;SDS011;54448;51.472;-2.574;2023-05-07T03:46:41;49.13;;;18.48;;
67665;SDS011;54448;51.472;-2.574;2023-05-07T03:49:06;54.45;;;19.17;;
67665;SDS011;54448;51.472;-2.574;2023-05-07T03:51:31;48.58;;;19.83;;
67665;SDS011;54448;51.472;-2.574;2023-05-07T03:53:57;55.95;;;20.13;;
67665;SDS011;54448;51.472;-2.574;2023-05-07T03:56:22;54.20;;;20.20;;
67665;SDS011;54448;51.472;-2.574;2023-05-07T03:58:51;59.72;;;20.98;;
67665;SDS011;54448;51.472;-2.574;2023-05-07T04:01:16;67.70;;;21.23;;
67665;SDS011;54448;51.472;-2.574;2023-05-07T04:03:42;66.85;;;22.63;;
67665;SDS011;54448;51.472;-2.574;2023-05-07T04:06:07;62.08;;;22.48;;
67665;SDS011;54448;51.472;-2.574;2023-05-07T04:08:32;63.05;;;22.23;;
67665;SDS011;54448;51.472;-2.574;2023-05-07T04:10:58;68.07;;;22.48;;
67665;SDS011;54448;51.472;-2.574;2023-05-07T04:13:24;64.10;;;22.73;;
67665;SDS011;54448;51.472;-2.574;2023-05-07T04:15:50;72.32;;;24.25;;
67665;SDS011;54448;51.472;-2.574;2023-05-07T04:18:16;67.93;;;25.33;;
67665;SDS011;54448;51.472;-2.574;2023-05-07T04:20:41;77.38;;;25.30;;
67665;SDS011;54448;51.472;-2.574;2023-05-07T04:23:06;77.25;;;23.45;;
67665;SDS011;54448;51.472;-2.574;2023-05-07T04:25:32;68.20;;;23.45;;
67665;SDS011;54448;51.472;-2.574;2023-05-07T04:27:58;64.50;;;24.10;;
67665;SDS011;54448;51.472;-2.574;2023-05-07T04:30:23;68.78;;;24.05;;
67665;SDS011;54448;51.472;-2.574;2023-05-07T04:32:48;68.72;;;23.90;;
67665;SDS011;54448;51.472;-2.574;2023-05-07T04:35:14;70.10;;;23.38;;
67665;SDS011;54448;51.472;-2.574;2023-05-07T04:37:39;66.65;;;23.90;;
67665;SDS011;54448;51.472;-2.574;2023-05-07T04:40:05;72.68;;;22.40;;
67665;SDS011;54448;51.472;-2.574;2023-05-07T04:42:31;59.08;;;22.50;;
67665;SDS011;54448;51.472;-2.574;2023-05-07T04:44:57;67.32;;;22.63;;
67665;SDS011;54448;51.472;-2.574;2023-05-07T04:47:22;65.47;;;22.95;;
67665;SDS011;54448;51.472;-2.574;2023-05-07T04:49:47;59.88;;;21.50;;
67665;SDS011;54448;51.472;-2.574;2023-05-07T04:52:12;65.35;;;22.00;;
67665;SDS011;54448;51.472;-2.574;2023-05-07T04:54:38;66.35;;;22.75;;
67665;SDS011;54448;51.472;-2.574;2023-05-07T04:57:03;59.78;;;21.65;;
67665;SDS011;54448;51.472;-2.574;2023-05-07T04:59:29;59.95;;;20.75;;
67665;SDS011;54448;51.472;-2.574;2023-05-07T05:01:55;61.50;;;20.65;;
67665;SDS011;54448;51.472;-2.574;2023-05-07T05:04:20;56.22;;;20.73;;
67665;SDS011;54448;51.472;-2.574;2023-05-07T05:06:45;53.50;;;20.33;;
67665;SDS011;54448;51.472;-2.574;2023-05-07T05:09:11;60.33;;;20.10;;
67665;SDS011;54448;51.472;-2.574;2023-05-07T05:11:36;53.90;;;20.40;;
67665;SDS011;54448;51.472;-2.574;2023-05-07T05:14:01;44.28;;;17.33;;
67665;SDS011;54448;51.472;-2.574;2023-05-07T05:16:27;42.75;;;17.08;;
67665;SDS011;54448;51.472;-2.574;2023-05-07T05:18:52;36.63;;;14.90;;
67665;SDS011;54448;51.472;-2.574;2023-05-07T05:21:19;35.67;;;16.13;;
67665;SDS011;54448;51.472;-2.574;2023-05-07T05:23:45;39.92;;;16.02;;
67665;SDS011;54448;51.472;-2.574;2023-05-07T05:26:10;41.45;;;16.48;;
67665;SDS011;54448;51.472;-2.574;2023-05-07T05:28:36;42.47;;;15.50;;
67665;SDS011;54448;51.472;-2.574;2023-05-07T05:31:01;41.72;;;15.50;;
67665;SDS011;54448;51.472;-2.574;2023-05-07T05:33:27;38.00;;;15.82;;
67665;SDS011;54448;51.472;-2.574;2023-05-07T05:35:53;39.65;;;15.65;;
67665;SDS011;54448;51.472;-2.574;2023-05-07T05:38:19;39.63;;;14.50;;
67665;SDS011;54448;51.472;-2.574;2023-05-07T05:40:45;40.58;;;16.00;;
67665;SDS011;54448;51.472;-2.574;2023-05-07T05:43:11;31.35;;;14.02;;
67665;SDS011;54448;51.472;-2.574;2023-05-07T05:45:36;43.15;;;16.33;;
67665;SDS011;54448;51.472;-2.574;2023-05-07T05:48:01;36.10;;;15.52;;
67665;SDS011;54448;51.472;-2.574;2023-05-07T05:50:27;36.17;;;15.43;;
67665;SDS011;54448;51.472;-2.574;2023-05-07T05:52:52;41.60;;;14.73;;
67665;SDS011;54448;51.472;-2.574;2023-05-07T05:55:18;38.05;;;14.52;;
67665;SDS011;54448;51.472;-2.574;2023-05-07T05:57:43;36.75;;;14.88;;
67665;SDS011;54448;51.472;-2.574;2023-05-07T06:00:09;39.42;;;14.35;;
67665;SDS011;54448;51.472;-2.574;2023-05-07T06:02:34;32.17;;;13.80;;
67665;SDS011;54448;51.472;-2.574;2023-05-07T06:05:00;28.40;;;13.55;;
67665;SDS011;54448;51.472;-2.574;2023-05-07T06:07:25;39.55;;;14.55;;
67665;SDS011;54448;51.472;-2.574;2023-05-07T06:09:50;35.97;;;13.80;;
67665;SDS011;54448;51.472;-2.574;2023-05-07T06:12:16;31.52;;;13.57;;
67665;SDS011;54448;51.472;-2.574;2023-05-07T06:14:44;32.78;;;13.40;;
67665;SDS011;54448;51.472;-2.574;2023-05-07T06:17:09;32.30;;;12.65;;
67665;SDS011;54448;51.472;-2.574;2023-05-07T06:19:35;39.40;;;13.48;;
67665;SDS011;54448;51.472;-2.574;2023-05-07T06:22:00;33.38;;;12.77;;
67665;SDS011;54448;51.472;-2.574;2023-05-07T06:24:26;33.45;;;12.50;;
67665;SDS011;54448;51.472;-2.574;2023-05-07T06:26:52;33.28;;;11.30;;
67665;SDS011;54448;51.472;-2.574;2023-05-07T06:29:17;27.05;;;10.45;;
67665;SDS011;54448;51.472;-2.574;2023-05-07T06:31:43;28.23;;;10.07;;
67665;SDS011;54448;51.472;-2.574;2023-05-07T06:34:08;26.70;;;10.52;;
67665;SDS011;54448;51.472;-2.574;2023-05-07T06:36:34;28.13;;;10.35;;
67665;SDS011;54448;51.472;-2.574;2023-05-07T06:39:00;26.67;;;9.20;;
67665;SDS011;54448;51.472;-2.574;2023-05-07T06:41:25;25.88;;;10.10;;
67665;SDS011;54448;51.472;-2.574;2023-05-07T06:43:50;25.77;;;9.40;;
67665;SDS011;54448;51.472;-2.574;2023-05-07T06:46:16;21.98;;;8.30;;
67665;SDS011;54448;51.472;-2.574;2023-05-07T06:48:41;18.85;;;7.97;;
67665;SDS011;54448;51.472;-2.574;2023-05-07T06:51:07;23.77;;;8.18;;
67665;SDS011;54448;51.472;-2.574;2023-05-07T06:53:32;18.00;;;8.45;;
67665;SDS011;54448;51.472;-2.574;2023-05-07T06:55:57;23.58;;;8.23;;
67665;SDS011;54448;51.472;-2.574;2023-05-07T06:58:23;17.58;;;8.00;;
67665;SDS011;54448;51.472;-2.574;2023-05-07T07:00:48;22.08;;;8.35;;
67665;SDS011;54448;51.472;-2.574;2023-05-07T07:03:14;20.10;;;8.32;;
67665;SDS011;54448;51.472;-2.574;2023-05-07T07:05:42;23.35;;;7.57;;
67665;SDS011;54448;51.472;-2.574;2023-05-07T07:08:07;25.88;;;8.18;;
67665;SDS011;54448;51.472;-2.574;2023-05-07T07:10:33;20.08;;;7.72;;
67665;SDS011;54448;51.472;-2.574;2023-05-07T07:12:58;21.33;;;8.10;;
67665;SDS011;54448;51.472;-2.574;2023-05-07T07:15:23;23.38;;;8.05;;
67665;SDS011;54448;51.472;-2.574;2023-05-07T07:17:50;26.63;;;8.73;;
67665;SDS011;54448;51.472;-2.574;2023-05-07T07:20:15;19.42;;;8.30;;
67665;SDS011;54448;51.472;-2.574;2023-05-07T07:22:41;21.20;;;8.35;;
67665;SDS011;54448;51.472;-2.574;2023-05-07T07:25:06;20.88;;;8.18;;
67665;SDS011;54448;51.472;-2.574;2023-05-07T07:27:32;17.85;;;7.18;;
67665;SDS011;54448;51.472;-2.574;2023-05-07T07:29:57;18.45;;;7.45;;
67665;SDS011;54448;51.472;-2.574;2023-05-07T07:32:22;24.38;;;6.78;;
67665;SDS011;54448;51.472;-2.574;2023-05-07T07:34:48;18.27;;;6.70;;
67665;SDS011;54448;51.472;-2.574;2023-05-07T07:37:13;14.82;;;6.65;;
67665;SDS011;54448;51.472;-2.574;2023-05-07T07:39:39;17.25;;;6.82;;
67665;SDS011;54448;51.472;-2.574;2023-05-07T07:42:04;19.77;;;6.88;;
67665;SDS011;54448;51.472;-2.574;2023-05-07T07:44:30;19.40;;;6.20;;
67665;SDS011;54448;51.472;-2.574;2023-05-07T07:46:55;15.50;;;6.50;;
67665;SDS011;54448;51.472;-2.574;2023-05-07T07:49:20;20.88;;;6.78;;
67665;SDS011;54448;51.472;-2.574;2023-05-07T07:51:46;16.88;;;7.00;;
67665;SDS011;54448;51.472;-2.574;2023-05-07T07:54:11;12.35;;;5.60;;
67665;SDS011;54448;51.472;-2.574;2023-05-07T07:56:37;13.07;;;5.40;;
67665;SDS011;54448;51.472;-2.574;2023-05-07T07:59:03;14.43;;;5.60;;
67665;SDS011;54448;51.472;-2.574;2023-05-07T08:01:29;18.40;;;5.30;;
67665;SDS011;54448;51.472;-2.574;2023-05-07T08:03:55;16.42;;;5.72;;
67665;SDS011;54448;51.472;-2.574;2023-05-07T08:06:20;16.30;;;5.45;;
67665;SDS011;54448;51.472;-2.574;2023-05-07T08:08:45;15.18;;;6.13;;
67665;SDS011;54448;51.472;-2.574;2023-05-07T08:11:11;17.40;;;6.07;;
67665;SDS011;54448;51.472;-2.574;2023-05-07T08:13:36;22.13;;;5.40;;
67665;SDS011;54448;51.472;-2.574;2023-05-07T08:16:03;14.75;;;5.45;;
67665;SDS011;54448;51.472;-2.574;2023-05-07T08:18:29;13.07;;;4.50;;
67665;SDS011;54448;51.472;-2.574;2023-05-07T08:20:54;12.30;;;4.22;;
67665;SDS011;54448;51.472;-2.574;2023-05-07T08:23:20;12.10;;;4.18;;
67665;SDS011;54448;51.472;-2.574;2023-05-07T08:25:46;11.13;;;3.58;;
67665;SDS011;54448;51.472;-2.574;2023-05-07T08:28:11;16.38;;;3.63;;
67665;SDS011;54448;51.472;-2.574;2023-05-07T08:30:37;13.80;;;3.28;;
67665;SDS011;54448;51.472;-2.574;2023-05-07T08:33:02;11.23;;;2.58;;
67665;SDS011;54448;51.472;-2.574;2023-05-07T08:35:27;9.38;;;2.25;;
67665;SDS011;54448;51.472;-2.574;2023-05-07T08:37:53;11.88;;;3.13;;
67665;SDS011;54448;51.472;-2.574;2023-05-07T08:40:19;13.88;;;2.83;;
67665;SDS011;54448;51.472;-2.574;2023-05-07T08:42:45;15.38;;;2.88;;
67665;SDS011;54448;51.472;-2.574;2023-05-07T08:45:14;9.45;;;2.72;;
67665;SDS011;54448;51.472;-2.574;2023-05-07T08:47:42;11.45;;;2.90;;
67665;SDS011;54448;51.472;-2.574;2023-05-07T08:50:10;12.57;;;2.67;;
67665;SDS011;54448;51.472;-2.574;2023-05-07T08:52:36;16.08;;;2.55;;
67665;SDS011;54448;51.472;-2.574;2023-05-07T08:55:02;5.78;;;2.03;;
67665;SDS011;54448;51.472;-2.574;2023-05-07T08:57:28;11.60;;;2.40;;
67665;SDS011;54448;51.472;-2.574;2023-05-07T08:59:53;9.82;;;2.40;;
67665;SDS011;54448;51.472;-2.574;2023-05-07T09:02:18;12.15;;;2.38;;
67665;SDS011;54448;51.472;-2.574;2023-05-07T09:04:44;10.85;;;3.15;;
67665;SDS011;54448;51.472;-2.574;2023-05-07T09:07:09;7.82;;;2.20;;
67665;SDS011;54448;51.472;-2.574;2023-05-07T09:09:35;14.40;;;2.70;;
67665;SDS011;54448;51.472;-2.574;2023-05-07T09:12:00;9.50;;;2.25;;
67665;SDS011;54448;51.472;-2.574;2023-05-07T09:14:27;11.52;;;2.70;;
67665;SDS011;54448;51.472;-2.574;2023-05-07T09:16:53;10.57;;;2.78;;
67665;SDS011;54448;51.472;-2.574;2023-05-07T09:19:22;10.88;;;2.63;;
67665;SDS011;54448;51.472;-2.574;2023-05-07T09:21:48;10.20;;;2.25;;
67665;SDS011;54448;51.472;-2.574;2023-05-07T09:24:15;8.95;;;2.35;;
67665;SDS011;54448;51.472;-2.574;2023-05-07T09:26:40;12.63;;;2.50;;
67665;SDS011;54448;51.472;-2.574;2023-05-07T09:29:06;10.65;;;2.53;;
67665;SDS011;54448;51.472;-2.574;2023-05-07T09:31:35;13.25;;;2.80;;
67665;SDS011;54448;51.472;-2.574;2023-05-07T09:34:01;10.25;;;2.75;;
67665;SDS011;54448;51.472;-2.574;2023-05-07T09:36:27;9.80;;;3.60;;
67665;SDS011;54448;51.472;-2.574;2023-05-07T09:38:52;9.32;;;2.53;;
67665;SDS011;54448;51.472;-2.574;2023-05-07T09:41:17;8.23;;;2.60;;
67665;SDS011;54448;51.472;-2.574;2023-05-07T09:43:44;7.28;;;2.38;;
67665;SDS011;54448;51.472;-2.574;2023-05-07T09:46:13;9.57;;;2.75;;
67665;SDS011;54448;51.472;-2.574;2023-05-07T09:48:39;11.85;;;3.63;;
67665;SDS011;54448;51.472;-2.574;2023-05-07T09:51:51;11.27;;;3.40;;
67665;SDS011;54448;51.472;-2.574;2023-05-07T09:54:05;15.65;;;3.10;;
67665;SDS011;54448;51.472;-2.574;2023-05-07T09:56:31;11.00;;;3.70;;
67665;SDS011;54448;51.472;-2.574;2023-05-07T09:59:00;12.50;;;3.75;;
67665;SDS011;54448;51.472;-2.574;2023-05-07T10:01:25;10.95;;;3.50;;
67665;SDS011;54448;51.472;-2.574;2023-05-07T10:03:52;17.58;;;4.47;;
67665;SDS011;54448;51.472;-2.574;2023-05-07T10:06:17;8.65;;;3.45;;
67665;SDS011;54448;51.472;-2.574;2023-05-07T10:08:44;13.13;;;3.97;;
67665;SDS011;54448;51.472;-2.574;2023-05-07T10:11:10;12.73;;;4.25;;
67665;SDS011;54448;51.472;-2.574;2023-05-07T10:13:36;13.32;;;3.88;;
67665;SDS011;54448;51.472;-2.574;2023-05-07T10:16:03;11.07;;;4.20;;
67665;SDS011;54448;51.472;-2.574;2023-05-07T10:18:30;14.75;;;4.55;;
67665;SDS011;54448;51.472;-2.574;2023-05-07T10:20:59;10.30;;;3.55;;
67665;SDS011;54448;51.472;-2.574;2023-05-07T10:23:33;7.22;;;3.38;;
67665;SDS011;54448;51.472;-2.574;2023-05-07T10:25:59;7.75;;;2.55;;
67665;SDS011;54448;51.472;-2.574;2023-05-07T10:28:27;11.02;;;2.80;;
67665;SDS011;54448;51.472;-2.574;2023-05-07T10:34:09;8.68;;;2.35;;
67665;SDS011;54448;51.472;-2.574;2023-05-07T10:36:36;6.93;;;2.30;;
67665;SDS011;54448;51.472;-2.574;2023-05-07T10:39:02;11.77;;;3.63;;
67665;SDS011;54448;51.472;-2.574;2023-05-07T10:41:27;7.85;;;2.50;;
67665;SDS011;54448;51.472;-2.574;2023-05-07T10:43:53;9.38;;;2.72;;
67665;SDS011;54448;51.472;-2.574;2023-05-07T10:46:19;10.90;;;3.60;;
67665;SDS011;54448;51.472;-2.574;2023-05-07T10:51:27;8.52;;;3.30;;
67665;SDS011;54448;51.472;-2.574;2023-05-07T10:56:42;9.65;;;2.92;;
67665;SDS011;54448;51.472;-2.574;2023-05-07T11:01:59;7.30;;;3.47;;
67665;SDS011;54448;51.472;-2.574;2023-05-07T11:04:28;8.75;;;2.47;;
67665;SDS011;54448;51.472;-2.574;2023-05-07T11:13:03;8.57;;;2.90;;
67665;SDS011;54448;51.472;-2.574;2023-05-07T11:17:32;9.50;;;3.10;;
67665;SDS011;54448;51.472;-2.574;2023-05-07T11:19:59;8.30;;;3.45;;
67665;SDS011;54448;51.472;-2.574;2023-05-07T11:25:01;7.32;;;3.50;;
67665;SDS011;54448;51.472;-2.574;2023-05-07T11:27:30;8.00;;;3.70;;
67665;SDS011;54448;51.472;-2.574;2023-05-07T11:29:56;9.25;;;3.85;;
67665;SDS011;54448;51.472;-2.574;2023-05-07T11:32:22;10.15;;;4.78;;
67665;SDS011;54448;51.472;-2.574;2023-05-07T11:34:51;12.40;;;3.80;;
67665;SDS011;54448;51.472;-2.574;2023-05-07T11:37:17;8.57;;;4.00;;
67665;SDS011;54448;51.472;-2.574;2023-05-07T11:39:43;8.30;;;3.63;;
67665;SDS011;54448;51.472;-2.574;2023-05-07T11:44:53;8.65;;;3.55;;
67665;SDS011;54448;51.472;-2.574;2023-05-07T11:47:19;12.30;;;4.22;;
67665;SDS011;54448;51.472;-2.574;2023-05-07T11:49:52;10.18;;;4.18;;
67665;SDS011;54448;51.472;-2.574;2023-05-07T11:52:19;10.43;;;4.13;;
67665;SDS011;54448;51.472;-2.574;2023-05-07T11:54:48;10.88;;;4.13;;
67665;SDS011;54448;51.472;-2.574;2023-05-07T11:57:17;9.73;;;3.80;;
67665;SDS011;54448;51.472;-2.574;2023-05-07T11:59:43;9.02;;;3.65;;
67665;SDS011;54448;51.472;-2.574;2023-05-07T12:02:15;7.80;;;4.22;;
67665;SDS011;54448;51.472;-2.574;2023-05-07T12:04:41;12.05;;;4.35;;
67665;SDS011;54448;51.472;-2.574;2023-05-07T12:07:13;14.02;;;5.68;;
67665;SDS011;54448;51.472;-2.574;2023-05-07T12:09:43;13.40;;;5.45;;
67665;SDS011;54448;51.472;-2.574;2023-05-07T12:12:09;13.52;;;6.72;;
67665;SDS011;54448;51.472;-2.574;2023-05-07T12:14:52;15.20;;;7.25;;
67665;SDS011;54448;51.472;-2.574;2023-05-07T12:17:17;15.13;;;7.30;;
67665;SDS011;54448;51.472;-2.574;2023-05-07T12:19:43;20.00;;;8.07;;
67665;SDS011;54448;51.472;-2.574;2023-05-07T12:22:09;15.73;;;7.07;;
67665;SDS011;54448;51.472;-2.574;2023-05-07T12:24:48;13.20;;;6.85;;
67665;SDS011;54448;51.472;-2.574;2023-05-07T12:27:14;13.35;;;7.00;;
67665;SDS011;54448;51.472;-2.574;2023-05-07T12:29:44;11.55;;;6.72;;
67665;SDS011;54448;51.472;-2.574;2023-05-07T12:32:14;17.92;;;7.53;;
67665;SDS011;54448;51.472;-2.574;2023-05-07T12:34:40;17.58;;;7.35;;
67665;SDS011;54448;51.472;-2.574;2023-05-07T12:37:06;13.95;;;6.88;;
67665;SDS011;54448;51.472;-2.574;2023-05-07T12:39:31;18.80;;;9.02;;
67665;SDS011;54448;51.472;-2.574;2023-05-07T12:41:58;15.10;;;8.02;;
67665;SDS011;54448;51.472;-2.574;2023-05-07T12:44:24;14.60;;;8.27;;
67665;SDS011;54448;51.472;-2.574;2023-05-07T12:46:50;17.08;;;8.60;;
67665;SDS011;54448;51.472;-2.574;2023-05-07T12:49:16;16.55;;;9.20;;
67665;SDS011;54448;51.472;-2.574;2023-05-07T12:51:43;14.75;;;7.03;;
67665;SDS011;54448;51.472;-2.574;2023-05-07T12:54:08;15.48;;;6.57;;
67665;SDS011;54448;51.472;-2.574;2023-05-07T12:56:37;14.98;;;4.93;;
67665;SDS011;54448;51.472;-2.574;2023-05-07T12:59:02;11.45;;;4.97;;
67665;SDS011;54448;51.472;-2.574;2023-05-07T13:01:28;14.27;;;4.97;;
67665;SDS011;54448;51.472;-2.574;2023-05-07T13:03:54;16.98;;;4.95;;
67665;SDS011;54448;51.472;-2.574;2023-05-07T13:06:20;16.08;;;4.32;;
67665;SDS011;54448;51.472;-2.574;2023-05-07T13:08:45;17.15;;;4.60;;
67665;SDS011;54448;51.472;-2.574;2023-05-07T13:11:11;10.80;;;4.18;;
67665;SDS011;54448;51.472;-2.574;2023-05-07T13:13:37;12.40;;;4.10;;
67665;SDS011;54448;51.472;-2.574;2023-05-07T13:16:04;12.40;;;3.70;;
67665;SDS011;54448;51.472;-2.574;2023-05-07T13:18:31;12.95;;;4.03;;
67665;SDS011;54448;51.472;-2.574;2023-05-07T13:20:57;11.30;;;4.13;;
67665;SDS011;54448;51.472;-2.574;2023-05-07T13:23:23;11.73;;;3.50;;
67665;SDS011;54448;51.472;-2.574;2023-05-07T13:25:48;15.35;;;3.08;;
67665;SDS011;54448;51.472;-2.574;2023-05-07T13:28:14;29.15;;;13.13;;
67665;SDS011;54448;51.472;-2.574;2023-05-07T13:30:39;11.40;;;2.72;;
67665;SDS011;54448;51.472;-2.574;2023-05-07T13:33:08;11.75;;;3.20;;
67665;SDS011;54448;51.472;-2.574;2023-05-07T13:35:34;13.50;;;3.20;;
67665;SDS011;54448;51.472;-2.574;2023-05-07T13:37:59;10.70;;;2.65;;
67665;SDS011;54448;51.472;-2.574;2023-05-07T13:40:25;10.70;;;3.00;;
67665;SDS011;54448;51.472;-2.574;2023-05-07T13:42:50;12.55;;;2.85;;
67665;SDS011;54448;51.472;-2.574;2023-05-07T13:45:16;13.73;;;2.30;;
67665;SDS011;54448;51.472;-2.574;2023-05-07T13:47:42;10.25;;;2.20;;
67665;SDS011;54448;51.472;-2.574;2023-05-07T13:50:08;12.70;;;2.67;;
67665;SDS011;54448;51.472;-2.574;2023-05-07T13:52:36;10.35;;;2.22;;
67665;SDS011;54448;51.472;-2.574;2023-05-07T13:55:08;7.95;;;1.88;;
67665;SDS011;54448;51.472;-2.574;2023-05-07T13:57:37;5.65;;;1.77;;
67665;SDS011;54448;51.472;-2.574;2023-05-07T14:00:03;7.55;;;2.15;;
67665;SDS011;54448;51.472;-2.574;2023-05-07T14:02:30;8.45;;;2.00;;
67665;SDS011;54448;51.472;-2.574;2023-05-07T14:04:56;8.32;;;2.33;;
67665;SDS011;54448;51.472;-2.574;2023-05-07T14:07:21;7.63;;;1.80;;
67665;SDS011;54448;51.472;-2.574;2023-05-07T14:09:46;6.80;;;1.80;;
67665;SDS011;54448;51.472;-2.574;2023-05-07T14:12:12;8.30;;;2.13;;
67665;SDS011;54448;51.472;-2.574;2023-05-07T14:14:37;8.57;;;1.70;;
67665;SDS011;54448;51.472;-2.574;2023-05-07T14:17:02;6.97;;;1.60;;
67665;SDS011;54448;51.472;-2.574;2023-05-07T14:19:28;8.82;;;1.67;;
67665;SDS011;54448;51.472;-2.574;2023-05-07T14:21:53;8.52;;;1.80;;
67665;SDS011;54448;51.472;-2.574;2023-05-07T14:24:18;7.63;;;1.88;;
67665;SDS011;54448;51.472;-2.574;2023-05-07T14:26:44;8.95;;;2.05;;
67665;SDS011;54448;51.472;-2.574;2023-05-07T14:29:10;9.15;;;1.80;;
67665;SDS011;54448;51.472;-2.574;2023-05-07T14:31:35;8.18;;;2.00;;
67665;SDS011;54448;51.472;-2.574;2023-05-07T14:34:00;7.88;;;1.73;;
67665;SDS011;54448;51.472;-2.574;2023-05-07T14:36:26;7.32;;;2.05;;
67665;SDS011;54448;51.472;-2.574;2023-05-07T14:38:52;6.47;;;1.80;;